Time;durP1;ratioP1;P1;durP2;ratioP2;P2;SDS_P1;SDS_P2;PMS_P1;PMS_P2;Temp;Humidity;BMP_temperature;BMP_pressure;BME280_temperature;BME280_humidity;BME280_pressure;Samples;Min_cycle;Max_cycle;Signal;HPM_P1;HPM_P2
2022/04/18 00:01:49;;;;;;;5.25;3.20;;;;;;;-140.79;100.00;63287.88;5047786;28;20045;-55
2022/04/18 00:04:15;;;;;;;4.72;3.08;;;;;;;-140.79;100.00;63287.88;5047738;28;20025;-55
2022/04/18 00:06:40;;;;;;;4.80;3.42;;;;;;;-140.79;100.00;63287.88;5043268;28;20491;-55
2022/04/18 00:09:06;;;;;;;4.90;3.55;;;;;;;-140.79;100.00;63287.88;5027959;28;20481;-55
2022/04/18 00:11:32;;;;;;;5.97;3.80;;;;;;;-140.79;100.00;63287.88;5027515;28;20026;-55
2022/04/18 00:13:57;;;;;;;4.90;3.15;;;;;;;-140.79;100.00;63287.88;5027822;28;20558;-55
2022/04/18 00:16:23;;;;;;;4.35;3.15;;;;;;;-140.79;100.00;63287.88;5027129;28;20551;-55
2022/04/18 00:18:48;;;;;;;5.35;3.72;;;;;;;-140.79;100.00;63287.88;5033374;28;20024;-55
2022/04/18 00:21:14;;;;;;;4.78;3.38;;;;;;;-140.79;100.00;63287.88;5047689;28;20060;-54
2022/04/18 00:23:39;;;;;;;4.80;3.20;;;;;;;-140.79;100.00;63287.88;5047801;28;20055;-55
2022/04/18 00:26:04;;;;;;;4.07;2.90;;;;;;;-140.79;100.00;63287.88;5049630;28;20407;-55
2022/04/18 00:28:30;;;;;;;4.63;2.97;;;;;;;-140.79;100.00;63287.88;5030774;28;20464;-55
2022/04/18 00:30:57;;;;;;;5.50;3.67;;;;;;;-140.79;100.00;63287.88;5029366;28;20044;-55
2022/04/18 00:33:22;;;;;;;4.55;3.10;;;;;;;-140.79;100.00;63287.88;5027900;28;20032;-56
2022/04/18 00:35:48;;;;;;;4.38;2.75;;;;;;;-140.79;100.00;63287.88;5027405;28;20030;-55
2022/04/18 00:38:13;;;;;;;4.32;3.17;;;;;;;-140.79;100.00;63287.88;5028092;28;20095;-55
2022/04/18 00:40:39;;;;;;;5.53;3.28;;;;;;;-140.79;100.00;63287.88;5042131;28;20083;-55
2022/04/18 00:43:05;;;;;;;5.13;3.28;;;;;;;-140.79;100.00;63287.88;5034245;28;20555;-55
2022/04/18 00:45:31;;;;;;;4.10;2.80;;;;;;;-140.79;100.00;63287.88;5036172;28;20026;-55
2022/04/18 00:47:56;;;;;;;4.40;3.13;;;;;;;-140.79;100.00;63287.88;5041959;28;20192;-55
2022/04/18 00:50:22;;;;;;;4.60;3.00;;;;;;;-140.79;100.00;63287.88;5047142;28;20037;-56
2022/04/18 00:52:47;;;;;;;4.72;2.90;;;;;;;-140.79;100.00;63287.88;5045473;28;20276;-55
2022/04/18 00:55:13;;;;;;;3.70;2.67;;;;;;;-140.79;100.00;63287.88;5053510;28;20485;-55
2022/04/18 00:57:38;;;;;;;4.22;2.95;;;;;;;-140.79;100.00;63287.88;5042281;28;20025;-55
2022/04/18 01:00:04;;;;;;;4.90;3.05;;;;;;;-140.79;100.00;63287.88;5042908;28;20033;-55
2022/04/18 01:02:29;;;;;;;4.55;3.00;;;;;;;-140.79;100.00;63287.88;5042419;28;20033;-55
2022/04/18 01:04:55;;;;;;;4.68;3.17;;;;;;;-140.79;100.00;63287.88;5031630;28;20029;-56
2022/04/18 01:07:21;;;;;;;4.85;2.83;;;;;;;-140.79;100.00;63287.88;5046393;28;20029;-55
2022/04/18 01:09:46;;;;;;;4.68;2.70;;;;;;;-140.79;100.00;63287.88;5032780;28;20056;-54
2022/04/18 01:12:11;;;;;;;5.07;3.10;;;;;;;-140.79;100.00;63287.88;5026454;28;20037;-53
2022/04/18 01:14:37;;;;;;;4.30;2.70;;;;;;;-140.79;100.00;63287.88;5026893;28;20033;-53
2022/04/18 01:17:02;;;;;;;4.10;2.67;;;;;;;-140.79;100.00;63287.88;5026753;28;20024;-54
2022/04/18 01:19:28;;;;;;;4.28;2.83;;;;;;;-140.79;100.00;63287.88;5037227;28;20201;-53
2022/04/18 01:21:53;;;;;;;4.10;2.70;;;;;;;-140.79;100.00;63287.88;5046478;28;20063;-53
2022/04/18 01:29:47;;;;;;;4.65;2.88;;;;;;;-140.79;100.00;63287.88;5032089;28;20107;-55
2022/04/18 01:32:13;;;;;;;4.15;3.00;;;;;;;-140.79;100.00;63287.88;5037494;28;20029;-54
2022/04/18 01:34:38;;;;;;;3.88;2.40;;;;;;;-140.79;100.00;63287.88;5046516;28;20384;-55
2022/04/18 01:37:04;;;;;;;4.03;2.58;;;;;;;-140.79;100.00;63287.88;5046234;28;20025;-55
2022/04/18 01:39:29;;;;;;;3.17;2.15;;;;;;;-140.79;100.00;63287.88;5044888;28;20083;-54
2022/04/18 01:41:54;;;;;;;4.00;2.58;;;;;;;-140.79;100.00;63287.88;5046098;28;20041;-54
2022/04/18 01:44:20;;;;;;;3.70;2.45;;;;;;;-140.79;100.00;63287.88;5028164;28;20037;-54
2022/04/18 01:46:45;;;;;;;3.63;2.47;;;;;;;-140.79;100.00;63287.88;5031172;28;20025;-54
2022/04/18 01:49:11;;;;;;;4.03;2.35;;;;;;;-140.79;100.00;63287.88;5037736;28;20045;-53
2022/04/18 01:51:36;;;;;;;3.58;2.40;;;;;;;-140.79;100.00;63287.88;5026078;28;20837;-54
2022/04/18 01:54:02;;;;;;;3.95;2.40;;;;;;;-140.79;100.00;63287.88;5026473;28;20424;-55
2022/04/18 01:56:27;;;;;;;4.07;2.63;;;;;;;-140.79;100.00;63287.88;5026023;28;20044;-54
2022/04/18 01:58:52;;;;;;;3.85;2.22;;;;;;;-140.79;100.00;63287.88;5026070;28;20094;-55
2022/04/18 02:01:18;;;;;;;3.53;2.42;;;;;;;-140.79;100.00;63287.88;5026084;28;20037;-56
2022/04/18 02:03:43;;;;;;;3.30;2.28;;;;;;;-140.79;100.00;63287.88;5025910;28;20037;-54
2022/04/18 02:06:09;;;;;;;3.65;2.22;;;;;;;-140.79;100.00;63287.88;5026065;28;20057;-55
2022/04/18 02:08:35;;;;;;;3.58;2.20;;;;;;;-140.79;100.00;63287.88;5025499;28;20100;-55
2022/04/18 02:11:01;;;;;;;3.30;2.15;;;;;;;-140.79;100.00;63287.88;5025648;28;20087;-55
2022/04/18 02:13:28;;;;;;;3.05;2.03;;;;;;;-140.79;100.00;63287.88;5025937;28;20116;-54
2022/04/18 02:15:55;;;;;;;3.42;2.30;;;;;;;-140.79;100.00;63287.88;5025838;28;20087;-54
2022/04/18 02:18:20;;;;;;;3.47;2.28;;;;;;;-140.79;100.00;63287.88;5026630;28;20034;-55
2022/04/18 02:20:46;;;;;;;3.35;2.20;;;;;;;-140.79;100.00;63287.88;5040094;28;20041;-54
2022/04/18 02:23:11;;;;;;;3.22;2.10;;;;;;;-140.79;100.00;63287.88;5025772;28;20036;-54
2022/04/18 02:25:37;;;;;;;2.95;2.13;;;;;;;-140.79;100.00;63287.88;5025071;28;20037;-54
2022/04/18 02:28:02;;;;;;;3.17;2.20;;;;;;;-140.79;100.00;63287.88;5024995;28;20033;-54
2022/04/18 02:30:28;;;;;;;3.42;2.10;;;;;;;-140.79;100.00;63287.88;5040197;28;20049;-53
2022/04/18 02:32:53;;;;;;;3.05;1.88;;;;;;;-140.79;100.00;63287.88;5030958;28;20063;-53
2022/04/18 02:35:20;;;;;;;3.05;2.05;;;;;;;-140.79;100.00;63287.88;5044778;28;20091;-55
2022/04/18 02:37:46;;;;;;;3.45;2.20;;;;;;;-140.79;100.00;63287.88;5044738;28;20080;-54
2022/04/18 02:40:12;;;;;;;2.50;1.80;;;;;;;-140.79;100.00;63287.88;5044794;28;20135;-54
2022/04/18 02:42:37;;;;;;;3.38;2.10;;;;;;;-140.79;100.00;63287.88;5040895;28;20033;-54
2022/04/18 02:45:03;;;;;;;2.88;1.90;;;;;;;-140.79;100.00;63287.88;5030881;28;20444;-54
2022/04/18 02:47:28;;;;;;;2.78;1.95;;;;;;;-140.79;100.00;63287.88;5044795;28;20029;-54
2022/04/18 02:49:54;;;;;;;3.35;1.98;;;;;;;-140.79;100.00;63287.88;5030777;28;20579;-54
2022/04/18 02:52:19;;;;;;;2.67;1.88;;;;;;;-140.79;100.00;63287.88;5023050;28;20033;-53
2022/04/18 02:57:48;;;;;;;2.60;1.77;;;;;;;-140.79;100.00;63287.88;5025013;28;20032;-54
2022/04/18 03:00:14;;;;;;;2.58;1.70;;;;;;;-140.79;100.00;63287.88;5024258;28;20487;-55
2022/04/18 03:02:39;;;;;;;2.85;1.75;;;;;;;-140.79;100.00;63287.88;5025142;28;20025;-55
2022/04/18 03:05:06;;;;;;;2.50;1.85;;;;;;;-140.79;100.00;63287.88;5024801;28;21005;-54
2022/04/18 03:07:32;;;;;;;2.55;1.60;;;;;;;-140.79;100.00;63287.88;5024330;28;20095;-55
2022/04/18 03:09:58;;;;;;;2.80;1.70;;;;;;;-140.79;100.00;63287.88;5024729;28;20416;-55
2022/04/18 03:12:23;;;;;;;2.30;1.40;;;;;;;-140.79;100.00;63287.88;5039580;28;20040;-55
2022/04/18 03:14:49;;;;;;;2.75;1.75;;;;;;;-140.79;100.00;63287.88;5024947;28;20063;-55
2022/04/18 03:17:15;;;;;;;2.70;1.65;;;;;;;-140.79;100.00;63287.88;5024884;28;20036;-55
2022/04/18 03:19:40;;;;;;;2.80;1.67;;;;;;;-140.79;100.00;63287.88;5035934;28;20036;-54
2022/04/18 03:22:06;;;;;;;2.97;2.00;;;;;;;-140.79;100.00;63287.88;5044817;28;20083;-54
2022/04/18 03:24:32;;;;;;;2.97;1.80;;;;;;;-140.79;100.00;63287.88;5044432;28;20098;-55
2022/04/18 03:26:57;;;;;;;2.10;1.40;;;;;;;-140.79;100.00;63287.88;5038397;28;20033;-54
2022/04/18 03:29:22;;;;;;;2.30;1.60;;;;;;;-140.79;100.00;63287.88;5024480;28;20084;-54
2022/04/18 03:31:49;;;;;;;2.78;1.60;;;;;;;-140.79;100.00;63287.88;5024868;28;20124;-53
2022/04/18 03:34:14;;;;;;;2.20;1.42;;;;;;;-140.79;100.00;63287.88;5045037;28;20025;-55
2022/04/18 03:42:09;;;;;;;2.50;1.55;;;;;;;-140.79;100.00;63287.88;5032936;28;20578;-54
2022/04/18 03:44:38;;;;;;;2.20;1.27;;;;;;;-140.79;100.00;63287.88;5027534;28;20025;-55
2022/04/18 03:47:04;;;;;;;2.95;1.80;;;;;;;-140.79;100.00;63287.88;5028330;28;20051;-54
2022/04/18 03:49:29;;;;;;;1.80;1.35;;;;;;;-140.79;100.00;63287.88;5027971;28;20103;-54
2022/04/18 03:51:54;;;;;;;2.38;1.50;;;;;;;-140.79;100.00;63287.88;5028337;28;20037;-54
2022/04/18 03:54:20;;;;;;;2.72;1.65;;;;;;;-140.79;100.00;63287.88;5027599;28;20049;-54
2022/04/18 03:56:45;;;;;;;2.15;1.38;;;;;;;-140.79;100.00;63287.88;5027838;28;20484;-55
2022/04/18 03:59:11;;;;;;;1.85;1.33;;;;;;;-140.79;100.00;63287.88;5035263;28;20033;-54
2022/04/18 04:01:36;;;;;;;1.85;1.38;;;;;;;-140.79;100.00;63287.88;5046227;28;20462;-55
2022/04/18 04:04:02;;;;;;;2.58;1.40;;;;;;;-140.79;100.00;63287.88;5048649;28;20040;-55
2022/04/18 04:06:27;;;;;;;2.20;1.33;;;;;;;-140.79;100.00;63287.88;5057665;28;20036;-55
2022/04/18 04:08:53;;;;;;;2.15;1.35;;;;;;;-140.79;100.00;63287.88;5057516;28;20746;-55
2022/04/18 04:11:18;;;;;;;2.78;1.50;;;;;;;-140.79;100.00;63287.88;5063326;28;20024;-56
2022/04/18 04:13:43;;;;;;;2.60;1.60;;;;;;;-140.79;100.00;63287.88;5053443;28;20084;-54
2022/04/18 04:16:09;;;;;;;2.47;1.45;;;;;;;-140.79;100.00;63287.88;5048762;28;20017;-54
2022/04/18 04:18:34;;;;;;;1.88;1.15;;;;;;;-140.79;100.00;63287.88;5047470;28;20697;-55
2022/04/18 04:21:00;;;;;;;1.88;1.45;;;;;;;-140.79;100.00;63287.88;5047332;28;20032;-54
2022/04/18 04:23:25;;;;;;;2.25;1.27;;;;;;;-140.79;100.00;63287.88;5037489;28;20049;-53
2022/04/18 04:25:50;;;;;;;1.98;1.30;;;;;;;-140.79;100.00;63287.88;5042618;28;20040;-52
2022/04/18 04:28:16;;;;;;;2.33;1.38;;;;;;;-140.79;100.00;63287.88;5058396;28;20025;-53
2022/04/18 04:30:41;;;;;;;3.33;1.58;;;;;;;-140.79;100.00;63287.88;5060853;28;20076;-53
2022/04/18 04:33:07;;;;;;;4.68;1.27;;;;;;;-140.79;100.00;63287.88;5063420;28;20715;-54
2022/04/18 04:35:32;;;;;;;2.50;1.55;;;;;;;-140.79;100.00;63287.88;5062542;28;20017;-53
2022/04/18 04:37:58;;;;;;;3.50;1.55;;;;;;;-140.79;100.00;63287.88;5062501;28;20540;-53
2022/04/18 04:40:23;;;;;;;4.38;1.55;;;;;;;-140.79;100.00;63287.88;5031516;28;20081;-54
2022/04/18 04:42:48;;;;;;;3.92;1.50;;;;;;;-140.79;100.00;63287.88;5026076;28;20091;-54
2022/04/18 04:45:14;;;;;;;2.47;1.42;;;;;;;-140.79;100.00;63287.88;5027426;28;20772;-55
2022/04/18 04:47:39;;;;;;;3.17;1.52;;;;;;;-140.79;100.00;63287.88;5064937;28;20710;-55
2022/04/18 04:50:06;;;;;;;3.42;1.48;;;;;;;-140.79;100.00;63287.88;5036793;28;20034;-54
2022/04/18 04:52:31;;;;;;;2.55;1.50;;;;;;;-140.79;100.00;63287.88;5048405;28;20593;-54
2022/04/18 04:54:57;;;;;;;3.05;1.40;;;;;;;-140.79;100.00;63287.88;5060986;28;20036;-53
2022/04/18 04:57:22;;;;;;;3.28;1.50;;;;;;;-140.79;100.00;63287.88;5061917;28;20040;-54
2022/04/18 04:59:47;;;;;;;1.90;1.15;;;;;;;-140.79;100.00;63287.88;5061417;28;20036;-54
2022/04/18 05:02:13;;;;;;;1.98;1.33;;;;;;;-140.79;100.00;63287.88;5064305;28;20028;-53
2022/04/18 05:04:38;;;;;;;2.28;1.08;;;;;;;-140.79;100.00;63287.88;5056672;28;20040;-54
2022/04/18 05:07:04;;;;;;;2.67;1.40;;;;;;;-140.79;100.00;63287.88;5059967;28;20040;-54
2022/04/18 05:09:29;;;;;;;2.60;1.30;;;;;;;-140.79;100.00;63287.88;5057958;28;20124;-54
2022/04/18 05:11:55;;;;;;;2.55;1.30;;;;;;;-140.79;100.00;63287.88;5058445;28;20025;-54
2022/04/18 05:14:21;;;;;;;2.10;1.10;;;;;;;-140.79;100.00;63287.88;5060403;28;20086;-54
2022/04/18 05:16:46;;;;;;;2.03;1.30;;;;;;;-140.79;100.00;63287.88;5056395;28;20070;-54
2022/04/18 05:19:11;;;;;;;1.83;1.10;;;;;;;-140.79;100.00;63287.88;5047728;28;20091;-56
2022/04/18 05:21:37;;;;;;;3.58;1.50;;;;;;;-140.79;100.00;63287.88;5046694;28;20029;-53
2022/04/18 05:24:03;;;;;;;3.28;1.27;;;;;;;-140.79;100.00;63287.88;5036617;28;20033;-53
2022/04/18 05:26:29;;;;;;;2.78;1.65;;;;;;;-140.79;100.00;63287.88;5051690;28;20032;-53
2022/04/18 05:28:54;;;;;;;2.70;1.35;;;;;;;-140.79;100.00;63287.88;5048627;28;20021;-54
2022/04/18 05:31:19;;;;;;;4.65;1.30;;;;;;;-140.79;100.00;63287.88;5045366;28;20048;-53
2022/04/18 05:33:45;;;;;;;3.03;1.40;;;;;;;-140.79;100.00;63287.88;5049667;28;20043;-53
2022/04/18 05:36:11;;;;;;;2.85;1.35;;;;;;;-140.79;100.00;63287.88;5061078;28;20059;-52
2022/04/18 05:38:36;;;;;;;2.95;1.35;;;;;;;-140.79;100.00;63287.88;5049100;28;20057;-53
2022/04/18 05:41:01;;;;;;;4.90;1.42;;;;;;;-140.79;100.00;63287.88;5038790;28;20021;-53
2022/04/18 05:43:27;;;;;;;8.25;1.73;;;;;;;-140.79;100.00;63287.88;5060742;28;20511;-53
2022/04/18 05:45:53;;;;;;;9.43;1.73;;;;;;;-140.79;100.00;63287.88;5057966;28;20017;-52
2022/04/18 05:48:18;;;;;;;6.25;1.75;;;;;;;-140.79;100.00;63287.88;5060020;28;20036;-56
2022/04/18 05:50:47;;;;;;;8.85;2.05;;;;;;;-140.79;100.00;63287.88;5025621;28;20026;-54
2022/04/18 05:53:13;;;;;;;10.70;1.75;;;;;;;-140.79;100.00;63287.88;5052500;28;20115;-56
2022/04/18 05:55:38;;;;;;;9.77;2.10;;;;;;;-140.79;100.00;63287.88;5062248;28;20135;-55
2022/04/18 05:58:04;;;;;;;9.80;1.90;;;;;;;-140.79;100.00;63287.88;5064591;28;20020;-55
2022/04/18 06:00:32;;;;;;;11.60;2.10;;;;;;;-140.79;100.00;63287.88;5045494;28;20031;-54
2022/04/18 06:02:58;;;;;;;10.68;2.53;;;;;;;-140.79;100.00;63287.88;5053274;28;20051;-55
2022/04/18 06:05:23;;;;;;;9.45;2.05;;;;;;;-140.79;100.00;63287.88;5026320;28;20041;-53
2022/04/18 06:07:50;;;;;;;12.98;2.05;;;;;;;-140.79;100.00;63287.88;5026250;28;20040;-55
2022/04/18 06:10:15;;;;;;;12.75;2.10;;;;;;;-140.79;100.00;63287.88;5032455;28;20036;-54
2022/04/18 06:12:40;;;;;;;14.40;2.42;;;;;;;-140.79;100.00;63287.88;5043949;28;20037;-54
2022/04/18 06:15:06;;;;;;;12.15;2.00;;;;;;;-140.79;100.00;63287.88;5057672;28;20029;-56
2022/04/18 06:17:32;;;;;;;12.18;2.30;;;;;;;-140.79;100.00;63287.88;5054200;28;20040;-56
2022/04/18 06:19:57;;;;;;;14.95;3.35;;;;;;;-140.79;100.00;63287.88;5049277;28;20067;-55
2022/04/18 06:22:22;;;;;;;14.30;2.88;;;;;;;-140.79;100.00;63287.88;5051378;28;20632;-56
2022/04/18 06:24:48;;;;;;;12.82;2.08;;;;;;;-140.79;100.00;63287.88;5053425;28;20036;-57
2022/04/18 06:27:13;;;;;;;12.88;2.42;;;;;;;-140.79;100.00;63287.88;5053590;28;20028;-54
2022/04/18 06:29:39;;;;;;;10.93;2.25;;;;;;;-140.79;100.00;63287.88;5048092;28;20055;-55
2022/04/18 06:32:05;;;;;;;13.45;2.28;;;;;;;-140.79;100.00;63287.88;5046262;28;20102;-54
2022/04/18 06:34:31;;;;;;;14.13;2.50;;;;;;;-140.79;100.00;63287.88;5044765;28;20124;-55
2022/04/18 06:36:56;;;;;;;12.73;2.20;;;;;;;-140.79;100.00;63287.88;5046090;28;20029;-55
2022/04/18 06:39:22;;;;;;;15.13;2.53;;;;;;;-140.79;100.00;63287.88;5045287;28;20021;-55
2022/04/18 06:41:47;;;;;;;8.45;2.35;;;;;;;-140.79;100.00;63287.88;5052052;28;20055;-54
2022/04/18 06:44:13;;;;;;;12.20;2.45;;;;;;;-140.79;100.00;63287.88;5035672;28;20037;-56
2022/04/18 06:46:38;;;;;;;14.43;2.55;;;;;;;-140.79;100.00;63287.88;5051244;28;20033;-55
2022/04/18 06:49:03;;;;;;;14.73;2.80;;;;;;;-140.79;100.00;63287.88;5053546;28;20052;-54
2022/04/18 06:51:29;;;;;;;10.13;2.95;;;;;;;-140.79;100.00;63287.88;5051094;28;20086;-53
2022/04/18 06:53:54;;;;;;;14.50;2.50;;;;;;;-140.79;100.00;63287.88;5057461;28;20031;-54
2022/04/18 06:59:04;;;;;;;15.48;2.75;;;;;;;-140.79;100.00;63287.88;5055618;28;20040;-53
2022/04/18 07:01:29;;;;;;;15.68;2.90;;;;;;;-140.79;100.00;63287.88;5053703;28;20028;-55
2022/04/18 07:03:55;;;;;;;17.45;3.20;;;;;;;-140.79;100.00;63287.88;5041774;28;20029;-55
2022/04/18 07:06:20;;;;;;;14.52;2.30;;;;;;;-140.79;100.00;63287.88;5044647;28;20048;-55
2022/04/18 07:08:46;;;;;;;11.02;2.53;;;;;;;-140.79;100.00;63287.88;5054898;28;20052;-53
2022/04/18 07:11:12;;;;;;;11.82;3.03;;;;;;;-140.79;100.00;63287.88;5025398;28;20037;-54
2022/04/18 07:13:37;;;;;;;11.48;2.70;;;;;;;-140.79;100.00;63287.88;5036254;28;20131;-53
2022/04/18 07:16:04;;;;;;;14.13;3.67;;;;;;;-140.79;100.00;63287.88;5045330;28;20447;-53
2022/04/18 07:18:29;;;;;;;10.50;3.10;;;;;;;-140.79;100.00;63287.88;5043946;28;20112;-53
2022/04/18 07:20:55;;;;;;;12.85;2.78;;;;;;;-140.79;100.00;63287.88;5040321;28;20688;-54
2022/04/18 07:23:20;;;;;;;10.25;2.55;;;;;;;-140.79;100.00;63287.88;5029957;28;20029;-53
2022/04/18 07:25:46;;;;;;;11.65;2.47;;;;;;;-140.79;100.00;63287.88;5037381;28;20537;-54
2022/04/18 07:28:11;;;;;;;10.93;3.08;;;;;;;-140.79;100.00;63287.88;5044121;28;20029;-54
2022/04/18 07:30:36;;;;;;;10.38;2.65;;;;;;;-140.79;100.00;63287.88;5040723;28;20041;-55
2022/04/18 07:33:02;;;;;;;11.75;2.92;;;;;;;-140.79;100.00;63287.88;5030378;28;20033;-55
2022/04/18 07:35:27;;;;;;;11.20;2.80;;;;;;;-140.79;100.00;63287.88;5024552;28;20030;-55
2022/04/18 07:40:37;;;;;;;12.55;2.90;;;;;;;-140.79;100.00;63287.88;5031534;28;20091;-54
2022/04/18 07:43:02;;;;;;;14.48;3.85;;;;;;;-140.79;100.00;63287.88;5042096;28;20029;-55
2022/04/18 07:45:28;;;;;;;14.93;3.60;;;;;;;-140.79;100.00;63287.88;5057509;28;20033;-54
2022/04/18 07:47:53;;;;;;;16.95;3.70;;;;;;;-140.79;100.00;63287.88;5029199;28;20021;-54
2022/04/18 07:50:19;;;;;;;9.82;3.05;;;;;;;-140.79;100.00;63287.88;5022353;28;20463;-54
2022/04/18 07:52:44;;;;;;;14.57;3.45;;;;;;;-140.79;100.00;63287.88;5025187;28;20032;-53
2022/04/18 07:55:10;;;;;;;10.55;3.35;;;;;;;-140.79;100.00;63287.88;5042394;28;20424;-54
2022/04/18 07:57:37;;;;;;;10.85;3.50;;;;;;;-140.79;100.00;63287.88;5040867;28;20078;-54
2022/04/18 08:00:04;;;;;;;13.68;3.38;;;;;;;-140.79;100.00;63287.88;5042479;28;20033;-53
2022/04/18 08:02:30;;;;;;;13.38;3.53;;;;;;;-140.79;100.00;63287.88;5023915;28;20053;-54
2022/04/18 08:04:55;;;;;;;8.23;3.17;;;;;;;-140.79;100.00;63287.88;5021701;28;20052;-55
2022/04/18 08:07:21;;;;;;;9.70;3.70;;;;;;;-140.79;100.00;63287.88;5031421;28;20427;-56
2022/04/18 08:09:46;;;;;;;10.75;3.13;;;;;;;-140.79;100.00;63287.88;5022637;28;20032;-54
2022/04/18 08:12:12;;;;;;;12.63;3.67;;;;;;;-140.79;100.00;63287.88;5022576;28;20038;-55
2022/04/18 08:14:38;;;;;;;13.77;4.07;;;;;;;-140.79;100.00;63287.88;5041362;28;20040;-56
2022/04/18 08:17:03;;;;;;;10.23;3.08;;;;;;;-140.79;100.00;63287.88;5044398;28;20546;-55
2022/04/18 08:19:29;;;;;;;12.43;3.80;;;;;;;-140.79;100.00;63287.88;5038178;28;20029;-54
2022/04/18 08:21:55;;;;;;;11.07;3.28;;;;;;;-140.79;100.00;63287.88;5027822;28;20041;-54
2022/04/18 08:24:20;;;;;;;12.23;3.53;;;;;;;-140.79;100.00;63287.88;5042924;28;20040;-55
2022/04/18 08:26:47;;;;;;;11.55;3.42;;;;;;;-140.79;100.00;63287.88;5058551;28;20033;-52
2022/04/18 08:29:12;;;;;;;10.88;3.42;;;;;;;-140.79;100.00;63287.88;5027584;28;20036;-55
2022/04/18 08:31:38;;;;;;;10.10;3.22;;;;;;;-140.79;100.00;63287.88;5039857;28;20017;-53
2022/04/18 08:34:03;;;;;;;6.30;3.08;;;;;;;-140.79;100.00;63287.88;5050414;28;20037;-53
2022/04/18 08:36:29;;;;;;;8.93;3.60;;;;;;;-140.79;100.00;63287.88;5043039;28;20029;-56
2022/04/18 08:38:55;;;;;;;9.90;3.30;;;;;;;-140.79;100.00;63287.88;5050551;28;20037;-54
2022/04/18 08:41:21;;;;;;;9.30;3.33;;;;;;;-140.79;100.00;63287.88;5027302;28;20034;-53
2022/04/18 08:43:47;;;;;;;10.05;3.10;;;;;;;-140.79;100.00;63287.88;5029740;28;20044;-54
2022/04/18 08:46:12;;;;;;;12.60;3.70;;;;;;;-140.79;100.00;63287.88;5059744;28;20037;-53
2022/04/18 08:54:05;;;;;;;7.35;3.17;;;;;;;-140.79;100.00;63287.88;5044907;28;20044;-55
2022/04/18 08:56:31;;;;;;;10.27;3.58;;;;;;;-140.79;100.00;63287.88;5057927;28;20037;-53
2022/04/18 08:58:56;;;;;;;9.23;2.67;;;;;;;-140.79;100.00;63287.88;5060903;28;20476;-55
2022/04/18 09:01:22;;;;;;;6.15;3.05;;;;;;;-140.79;100.00;63287.88;5053740;28;20420;-54
2022/04/18 09:03:47;;;;;;;8.63;4.35;;;;;;;-140.79;100.00;63287.88;5026854;28;20667;-56
2022/04/18 09:06:13;;;;;;;5.53;2.75;;;;;;;-140.79;100.00;63287.88;5026480;28;20515;-54
2022/04/18 09:08:47;;;;;;;9.02;3.63;;;;;;;-140.79;100.00;63287.88;5057870;28;20508;-55
2022/04/18 09:11:28;;;;;;;7.55;2.90;;;;;;;-140.79;100.00;63287.88;5039192;28;20037;-54
2022/04/18 09:13:57;;;;;;;10.05;3.45;;;;;;;-140.79;100.00;63287.88;5039268;28;20029;-55
2022/04/18 09:16:28;;;;;;;7.35;2.65;;;;;;;-140.79;100.00;63287.88;5046347;28;20047;-53
2022/04/18 09:19:22;;;;;;;8.05;3.45;;;;;;;-140.79;100.00;63287.88;5046211;28;20033;-55
2022/04/18 09:22:01;;;;;;;8.15;3.63;;;;;;;-140.79;100.00;63287.88;5030532;28;20052;-54
2022/04/18 09:24:32;;;;;;;10.88;3.80;;;;;;;-140.79;100.00;63287.88;5043143;28;20096;-58
2022/04/18 09:27:12;;;;;;;6.53;3.15;;;;;;;-140.79;100.00;63287.88;5046516;28;20033;-54
2022/04/18 09:29:40;;;;;;;6.93;3.30;;;;;;;-140.79;100.00;63287.88;5044961;28;20099;-54
2022/04/18 09:32:10;;;;;;;7.40;3.35;;;;;;;-140.79;100.00;63287.88;5029948;28;20523;-57
2022/04/18 09:34:36;;;;;;;8.85;3.63;;;;;;;-140.79;100.00;63287.88;5044457;28;20033;-55
2022/04/18 09:37:15;;;;;;;6.82;3.45;;;;;;;-140.79;100.00;63287.88;5036711;28;20104;-56
2022/04/18 09:39:42;;;;;;;6.20;3.40;;;;;;;-140.79;100.00;63287.88;5040593;28;20030;-55
2022/04/18 09:42:08;;;;;;;7.82;4.13;;;;;;;-140.79;100.00;63287.88;5042035;28;20059;-54
2022/04/18 09:44:34;;;;;;;7.03;2.75;;;;;;;-140.79;100.00;63287.88;5041226;28;20032;-54
2022/04/18 09:46:59;;;;;;;7.95;3.20;;;;;;;-140.79;100.00;63287.88;5029910;28;20017;-54
2022/04/18 09:49:35;;;;;;;10.95;3.63;;;;;;;-140.79;100.00;63287.88;5051805;28;20047;-55
2022/04/18 09:52:01;;;;;;;8.05;3.00;;;;;;;-140.79;100.00;63287.88;5051456;28;20040;-54
2022/04/18 09:54:26;;;;;;;7.28;3.30;;;;;;;-140.79;100.00;63287.88;5054279;28;20033;-55
2022/04/18 09:56:53;;;;;;;8.73;3.50;;;;;;;-140.79;100.00;63287.88;5050992;28;20026;-56
2022/04/18 09:59:19;;;;;;;7.80;3.60;;;;;;;-140.79;100.00;63287.88;5025805;28;20059;-57
2022/04/18 10:01:44;;;;;;;8.07;3.47;;;;;;;-140.79;100.00;63287.88;5056225;28;20095;-55
2022/04/18 10:04:10;;;;;;;7.18;3.25;;;;;;;-140.79;100.00;63287.88;5059659;28;20036;-55
2022/04/18 10:06:36;;;;;;;6.35;2.95;;;;;;;-140.79;100.00;63287.88;5042863;28;20032;-54
2022/04/18 10:09:02;;;;;;;9.75;3.65;;;;;;;-140.79;100.00;63287.88;5044228;28;20039;-54
2022/04/18 10:11:27;;;;;;;7.97;3.40;;;;;;;-140.79;100.00;63287.88;5059875;28;20028;-55
2022/04/18 10:13:53;;;;;;;8.45;3.50;;;;;;;-140.79;100.00;63287.88;5058848;28;20032;-54
2022/04/18 10:16:18;;;;;;;6.40;3.30;;;;;;;-140.79;100.00;63287.88;5052203;28;20033;-54
2022/04/18 10:18:48;;;;;;;8.43;3.60;;;;;;;-140.79;100.00;63287.88;5056848;28;20094;-55
2022/04/18 10:21:25;;;;;;;8.43;3.90;;;;;;;-140.79;100.00;63287.88;5059947;28;20522;-55
2022/04/18 10:24:18;;;;;;;6.65;3.28;;;;;;;-140.79;100.00;63287.88;5060507;28;20623;-54
2022/04/18 10:27:13;;;;;;;6.90;3.30;;;;;;;-140.79;100.00;63287.88;5056789;28;20044;-54
2022/04/18 10:29:44;;;;;;;6.30;3.38;;;;;;;-140.79;100.00;63287.88;5057166;28;20071;-54
2022/04/18 10:32:10;;;;;;;8.00;3.55;;;;;;;-140.79;100.00;63287.88;5045541;28;20059;-54
2022/04/18 10:34:35;;;;;;;6.43;3.38;;;;;;;-140.79;100.00;63287.88;5042554;28;20024;-54
2022/04/18 10:37:01;;;;;;;7.72;3.60;;;;;;;-140.79;100.00;63287.88;5041618;28;20040;-54
2022/04/18 10:39:37;;;;;;;7.70;3.20;;;;;;;-140.79;100.00;63287.88;5055314;28;20034;-54
2022/04/18 10:42:38;;;;;;;7.60;3.53;;;;;;;-140.79;100.00;63287.88;5058256;28;20029;-54
2022/04/18 10:45:07;;;;;;;7.07;3.55;;;;;;;-140.79;100.00;63287.88;4981841;28;20493;-54
2022/04/18 10:48:01;;;;;;;5.10;3.10;;;;;;;-140.79;100.00;63287.88;5033882;28;20055;-61
2022/04/18 10:50:40;;;;;;;7.00;3.17;;;;;;;-140.79;100.00;63287.88;5056683;28;20039;-54
2022/04/18 10:53:20;;;;;;;8.07;3.60;;;;;;;-140.79;100.00;63287.88;5049987;28;20112;-54
2022/04/18 10:55:51;;;;;;;8.63;4.00;;;;;;;-140.79;100.00;63287.88;5060266;28;20017;-56
2022/04/18 10:58:24;;;;;;;6.38;3.15;;;;;;;-140.79;100.00;63287.88;5054659;28;20039;-54
2022/04/18 11:00:50;;;;;;;6.40;3.10;;;;;;;-140.79;100.00;63287.88;5051434;28;20791;-55
2022/04/18 11:03:35;;;;;;;6.57;3.38;;;;;;;-140.79;100.00;63287.88;5061405;28;20142;-55
2022/04/18 11:06:10;;;;;;;5.78;3.53;;;;;;;-140.79;100.00;63287.88;5056027;28;20025;-55
2022/04/18 11:08:37;;;;;;;7.13;3.30;;;;;;;-140.79;100.00;63287.88;5059242;28;20036;-55
2022/04/18 11:11:07;;;;;;;7.05;3.60;;;;;;;-140.79;100.00;63287.88;5059087;28;20517;-54
2022/04/18 11:13:33;;;;;;;6.63;3.30;;;;;;;-140.79;100.00;63287.88;5043447;28;20491;-54
2022/04/18 11:16:23;;;;;;;7.97;3.47;;;;;;;-140.79;100.00;63287.88;5046323;28;20051;-54
2022/04/18 11:19:07;;;;;;;;;;;;;;;-140.79;100.00;63287.88;5057892;28;20025;-54
2022/04/18 11:21:58;;;;;;;6.43;3.35;;;;;;;-140.79;100.00;63287.88;5042137;28;20373;-55
2022/04/18 11:24:59;;;;;;;6.88;3.10;;;;;;;-140.79;100.00;63287.88;5028283;28;20072;-55
2022/04/18 11:27:27;;;;;;;7.22;2.80;;;;;;;-140.79;100.00;63287.88;5024948;28;20490;-54
2022/04/18 11:29:53;;;;;;;6.47;3.55;;;;;;;-140.79;100.00;63287.88;5041241;28;20041;-55
2022/04/18 11:32:20;;;;;;;6.25;3.35;;;;;;;-140.79;100.00;63287.88;5044064;28;20037;-55